Thunder radar more information blitzortung!


Radar de pluja more information rain snow radar


Visita la nostra xarxa de llocs de meteo:

Template documentation
and downloads

And another site



No particular awareness of the weather is required.    There are no Weather-warnings

Pagina Historial Weather Underground text

Diari Resum May 25, 2017 Unitats:  Imperial    Mètric   Tant
« Previous Dia
SegĂźent Dia »
Diari Setmana Mensual Anual Personalitzada
  Maxima: Minima: Media:
Temperatura: 93.2 °F 61.5 °F 79.3 °F
Punt de rosada: 56.1 °F 40.6 °F 47.5 °F
Humitat: 62 % 22 % 35 %
Wind Speed: 15.4 mph 0 mph 4.2 mph
RĂ fegues de vent: 15.4 mph - -
Vent:- - SW
Pression baro: 30 in 29.8 in -
Precipitacions: 0 in    
Historical Graphs
 
 
Dades de taula per May 25, 2017
Temps Temperatura Punt de rosada Pression baro Vent Wind Speed RĂ fegues de vent Humitat Rainfall Rate (Hourly)
00:00 70.2 °F 44.1 °F 30 in WSW 2.9 mph 2.9 mph 39 % 0 in
00:05 70 °F 44.4 °F 30 in SW 2.3 mph 2.3 mph 40 % 0 in
00:15 62.6 °F 45.7 °F 30 in WSW 1 mph 2 mph 54 % 0 in
00:25 63 °F 46 °F 29.9 in Calm   3 mph 54 % 0 in
00:35 62.4 °F 46.6 °F 29.9 in Calm   2 mph 56 % 0 in
00:45 62.6 °F 46.2 °F 30 in Calm   1 mph 55 % 0 in
00:55 62.6 °F 46.2 °F 30 in Calm   1 mph 55 % 0 in
01:05 62.6 °F 46.2 °F 30 in Calm     55 % 0 in
01:15 62.8 °F 46.4 °F 29.9 in West 1 mph 2 mph 55 % 0 in
01:25 62.6 °F 46.2 °F 29.9 in WSW 2 mph 2 mph 55 % 0 in
01:35 61.7 °F 45.9 °F 29.9 in SW 1 mph 2 mph 56 % 0 in
01:45 61.7 °F 46.8 °F 29.9 in SW 1 mph 1 mph 58 % 0 in
01:55 62.2 °F 47.3 °F 29.9 in Calm   1 mph 58 % 0 in
02:05 61.9 °F 46.9 °F 29.9 in SSE 1 mph 1 mph 58 % 0 in
02:15 62.1 °F 47.1 °F 30 in SSW 1 mph 1 mph 58 % 0 in
02:25 62.8 °F 47.8 °F 29.9 in Calm   1 mph 58 % 0 in
02:35 64.4 °F 48.7 °F 29.9 in Calm     57 % 0 in
02:45 65.7 °F 50 °F 29.9 in Calm   1 mph 57 % 0 in
02:55 65.3 °F 49.3 °F 30 in Calm   1 mph 56 % 0 in
03:05 64.8 °F 48.7 °F 30 in SW 1 mph 2 mph 56 % 0 in
03:15 67.1 °F 49.8 °F 30 in South 1 mph 2 mph 54 % 0 in
03:25 68.4 °F 50.5 °F 30 in ENE 2 mph 2 mph 53 % 0 in
03:35 68.7 °F 50.9 °F 30 in ENE 3 mph 3 mph 53 % 0 in
03:45 69.8 °F 51.4 °F 29.9 in Calm   1 mph 52 % 0 in
03:55 71.1 °F 52 °F 30 in SSE 1 mph 1 mph 51 % 0 in
04:05 73 °F 53.2 °F 30 in Calm   2 mph 50 % 0 in
04:15 72 °F 52.3 °F 30 in SSW 1 mph 2 mph 50 % 0 in
04:25 72.7 °F 52.3 °F 30 in SW 2 mph 2 mph 49 % 0 in
04:35 74.3 °F 53.2 °F 30 in WSW 1 mph 2 mph 48 % 0 in
04:45 75.6 °F 54.5 °F 30 in WSW 1 mph 3 mph 48 % 0 in
04:55 75.9 °F 54.1 °F 30 in SW 2 mph 3 mph 47 % 0 in
05:05 76.8 °F 54.5 °F 30 in SW 1 mph 3 mph 46 % 0 in
05:15 78.3 °F 54.7 °F 30 in SSW 1 mph 3 mph 44 % 0 in
05:25 79.5 °F 55.8 °F 29.9 in SSW 1 mph 2 mph 44 % 0 in
05:35 80.6 °F 55.4 °F 29.9 in SSW 1 mph 3 mph 42 % 0 in
05:45 82 °F 55.9 °F 29.9 in South 1 mph 3 mph 41 % 0 in
05:50 81.9 °F 55.9 °F 29.9 in South 1 mph 2 mph 41 % 0 in
10:50 81.9 °F 55.9 °F 29.9 in NE 1.2 mph 1.4 mph 41 % 0 in
10:55 82 °F 55.2 °F 29.9 in West 3.8 mph 3.8 mph 40 % 0 in
11:00 81.3 °F 54 °F 29.9 in NNE 3.5 mph 3.5 mph 39 % 0 in
11:05 82.4 °F 55.8 °F 29.9 in West 5.6 mph 5.6 mph 40 % 0 in
11:10 82.4 °F 55 °F 29.9 in WSW 2.3 mph 2.3 mph 39 % 0 in
11:15 83.7 °F 56.1 °F 29.9 in SW 3.5 mph 3.5 mph 39 % 0 in
11:20 85.3 °F 56.1 °F 29.9 in SSW 3.5 mph 3.5 mph 37 % 0 in
11:25 85.5 °F 55.6 °F 29.9 in SSE 2.3 mph 2.3 mph 36 % 0 in
11:30 86 °F 55.2 °F 29.9 in SW 3.6 mph 3.6 mph 35 % 0 in
11:35 86.7 °F 53.2 °F 29.9 in SE 2.3 mph 2.3 mph 32 % 0 in
11:40 87.1 °F 54.5 °F 29.9 in SSW 4.6 mph 4.6 mph 33 % 0 in
11:41 87.1 °F 53.6 °F 29.9 in SSE 2.4 mph 2.4 mph 32 % 0 in
11:46 86.9 °F 53.4 °F 29.9 in West 5.9 mph 5.9 mph 32 % 0 in
11:51 87.1 °F 52.9 °F 29.9 in South 2.6 mph 2.6 mph 31 % 0 in
11:56 87.8 °F 52.5 °F 29.9 in SSW 6.9 mph 6.9 mph 30 % 0 in
12:01 88.3 °F 54 °F 29.9 in SSW 4.6 mph 4.6 mph 31 % 0 in
12:06 87.8 °F 51.6 °F 29.9 in SSW 4.6 mph 4.6 mph 29 % 0 in
12:11 88 °F 50.7 °F 29.9 in East 4.6 mph 4.6 mph 28 % 0 in
12:16 87.8 °F 50.5 °F 29.9 in SSW 6.9 mph 6.9 mph 28 % 0 in
12:21 88.5 °F 52.2 °F 29.9 in SSW 3.5 mph 3.5 mph 29 % 0 in
12:26 89.8 °F 52.3 °F 29.9 in NW 2.3 mph 2.3 mph 28 % 0 in
12:31 90 °F 52.5 °F 29.9 in South 5.8 mph 5.8 mph 28 % 0 in
12:36 90.5 °F 52.9 °F 30 in SSW 6.9 mph 6.9 mph 28 % 0 in
12:41 89.8 °F 51.3 °F 30 in WSW 3.5 mph 3.5 mph 27 % 0 in
12:46 89.2 °F 50.9 °F 30 in SSE 2.3 mph 2.3 mph 27 % 0 in
12:51 90.5 °F 52 °F 29.9 in SSW 5.8 mph 5.8 mph 27 % 0 in
12:56 90.9 °F 52.3 °F 29.9 in NNE 3.3 mph 3.3 mph 27 % 0 in
13:01 91.2 °F 52.5 °F 29.9 in WSW 3.5 mph 3.5 mph 27 % 0 in
13:06 90.5 °F 50.9 °F 29.9 in SE 2.3 mph 2.3 mph 26 % 0 in
13:11 90.9 °F 51.3 °F 29.9 in SSW 2.3 mph 2.3 mph 26 % 0 in
13:16 91.4 °F 51.6 °F 29.9 in SW 6.9 mph 6.9 mph 26 % 0 in
13:21 91.6 °F 51.8 °F 29.9 in South 5.8 mph 5.8 mph 26 % 0 in
13:26 91.9 °F 51.1 °F 29.9 in SW 3.1 mph 3.1 mph 25 % 0 in
13:31 93.2 °F 53.2 °F 29.9 in SE 3.5 mph 3.5 mph 26 % 0 in
13:36 92.3 °F 52.5 °F 29.9 in West 5.8 mph 5.8 mph 26 % 0 in
13:41 92.1 °F 51.3 °F 29.9 in SSW 6.9 mph 6.9 mph 25 % 0 in
13:46 92.3 °F 51.4 °F 29.9 in SW 5.8 mph 5.8 mph 25 % 0 in
13:51 92.5 °F 51.4 °F 29.9 in SW 4.9 mph 4.9 mph 25 % 0 in
13:56 92.1 °F 50.2 °F 29.9 in South 6.9 mph 6.9 mph 24 % 0 in
14:02 91.8 °F 49.8 °F 29.9 in SSW 5.8 mph 5.9 mph 24 % 0 in
14:07 92.3 °F 50.4 °F 29.9 in WSW 4.3 mph 4.3 mph 24 % 0 in
14:12 91.6 °F 48.6 °F 29.9 in SW 6.9 mph 6.9 mph 23 % 0 in
14:17 91.6 °F 48.6 °F 29.9 in WSW 9.2 mph 9.2 mph 23 % 0 in
14:22 91.6 °F 48.6 °F 29.9 in SW 5.8 mph 5.8 mph 23 % 0 in
14:27 92.3 °F 49.1 °F 29.9 in SW 9 mph 9 mph 23 % 0 in
14:32 91.9 °F 48.7 °F 29.9 in SW 9.2 mph 9.2 mph 23 % 0 in
14:37 91 °F 46.9 °F 29.9 in SSW 9.2 mph 9.2 mph 22 % 0 in
14:42 90.9 °F 46.8 °F 29.9 in SW 10.4 mph 10.4 mph 22 % 0 in
14:47 91.6 °F 47.5 °F 29.9 in SW 2.3 mph 3.6 mph 22 % 0 in
14:52 91.8 °F 47.5 °F 29.9 in SSE 7.1 mph 7.1 mph 22 % 0 in
14:57 91.4 °F 47.1 °F 29.9 in SSE 6.9 mph 6.9 mph 22 % 0 in
15:02 91.6 °F 47.5 °F 29.9 in SW 5.8 mph 5.8 mph 22 % 0 in
15:07 91 °F 46.9 °F 29.9 in SW 5.8 mph 5.8 mph 22 % 0 in
15:12 90.9 °F 47.8 °F 29.9 in SSW 10.4 mph 10.4 mph 23 % 0 in
15:17 90.7 °F 47.8 °F 29.9 in SW 5.8 mph 5.8 mph 23 % 0 in
15:22 90.5 °F 47.7 °F 29.9 in WNW 5.8 mph 5.8 mph 23 % 0 in
15:27 89.1 °F 46.4 °F 29.9 in SW 10.4 mph 10.4 mph 23 % 0 in
15:32 89.2 °F 47.7 °F 29.9 in SW 10.4 mph 10.4 mph 24 % 0 in
15:37 90.1 °F 47.3 °F 29.9 in SSW 5.8 mph 5.8 mph 23 % 0 in
15:42 89.4 °F 47.8 °F 29.9 in SSE 6.9 mph 6.9 mph 24 % 0 in
15:47 89.1 °F 47.7 °F 29.9 in SW 12.7 mph 12.7 mph 24 % 0 in
15:52 88.5 °F 47.1 °F 29.9 in SW 15 mph 15 mph 24 % 0 in
15:57 88.9 °F 47.5 °F 29.9 in SSW 4.6 mph 4.6 mph 24 % 0 in
16:02 89.2 °F 47.7 °F 29.9 in SW 9.2 mph 9.2 mph 24 % 0 in
16:07 88.7 °F 47.3 °F 29.9 in SW 6.9 mph 6.9 mph 24 % 0 in
16:12 88.9 °F 47.5 °F 29.9 in SSW 8.1 mph 8.1 mph 24 % 0 in
16:17 88.7 °F 47.3 °F 29.9 in SW 11.5 mph 11.5 mph 24 % 0 in
16:22 88.5 °F 47.1 °F 29.8 in SSW 10.4 mph 10.4 mph 24 % 0 in
16:27 88.7 °F 47.3 °F 29.8 in South 6.9 mph 6.9 mph 24 % 0 in
16:32 88 °F 46.8 °F 29.8 in SW 11.5 mph 11.5 mph 24 % 0 in
16:37 88.5 °F 48.2 °F 29.8 in SW 6.4 mph 6.4 mph 25 % 0 in
16:42 89.1 °F 48.7 °F 29.8 in SW 6.9 mph 6.9 mph 25 % 0 in
16:47 88.5 °F 48.2 °F 29.8 in SW 11.5 mph 11.5 mph 25 % 0 in
16:52 88.2 °F 47.8 °F 29.8 in South 8.5 mph 8.5 mph 25 % 0 in
16:57 88 °F 47.7 °F 29.8 in SW 8.1 mph 8.1 mph 25 % 0 in
17:02 87.4 °F 47.3 °F 29.8 in West 9.2 mph 9.2 mph 25 % 0 in
17:07 87.8 °F 47.7 °F 29.8 in SW 10.4 mph 10.4 mph 25 % 0 in
17:12 87.6 °F 47.5 °F 29.8 in SW 7.1 mph 7.1 mph 25 % 0 in
17:17 86.9 °F 46.8 °F 29.8 in SW 10.4 mph 10.4 mph 25 % 0 in
17:22 87.8 °F 47.7 °F 29.8 in West 7.1 mph 7.1 mph 25 % 0 in
17:27 88 °F 47.7 °F 29.8 in SSE 8.5 mph 8.5 mph 25 % 0 in
17:32 87.6 °F 48.6 °F 29.8 in SW 10.7 mph 10.7 mph 26 % 0 in
17:37 87.4 °F 48.4 °F 29.8 in WSW 8.5 mph 8.5 mph 26 % 0 in
17:42 86.7 °F 46.8 °F 29.8 in SW 10.4 mph 10.4 mph 25 % 0 in
17:47 86.4 °F 46.4 °F 29.8 in SSW 6.9 mph 6.9 mph 25 % 0 in
17:52 86.2 °F 46.2 °F 29.9 in SSW 9.2 mph 9.2 mph 25 % 0 in
17:57 86.2 °F 46.2 °F 29.9 in SSW 6.9 mph 6.9 mph 25 % 0 in
18:02 86.2 °F 46.2 °F 29.9 in South 9.2 mph 9.2 mph 25 % 0 in
18:07 85.5 °F 45.7 °F 29.8 in West 5.9 mph 5.9 mph 25 % 0 in
18:12 85.5 °F 45.7 °F 29.8 in NW 8.1 mph 8.1 mph 25 % 0 in
18:17 85.3 °F 45.5 °F 29.8 in West 9.2 mph 9.2 mph 25 % 0 in
18:22 85.1 °F 45.3 °F 29.8 in WSW 8.7 mph 8.7 mph 25 % 0 in
18:27 84.7 °F 45 °F 29.8 in WSW 8.1 mph 8.1 mph 25 % 0 in
18:32 84.6 °F 45 °F 29.8 in WSW 9.2 mph 9.2 mph 25 % 0 in
18:37 84 °F 44.4 °F 29.8 in SSW 11.5 mph 11.5 mph 25 % 0 in
18:42 84 °F 44.4 °F 29.8 in SW 8.1 mph 8.1 mph 25 % 0 in
18:47 83.7 °F 44.1 °F 29.8 in SW 9.7 mph 9.7 mph 25 % 0 in
18:52 83.7 °F 44.1 °F 29.8 in WSW 10.4 mph 10.4 mph 25 % 0 in
18:57 83.5 °F 43.9 °F 29.8 in SSE 15.4 mph 15.4 mph 25 % 0 in
19:02 83.1 °F 42.6 °F 29.8 in SW 6.9 mph 6.9 mph 24 % 0 in
19:07 82.9 °F 42.4 °F 29.8 in SW 10.2 mph 10.2 mph 24 % 0 in
19:12 82.8 °F 42.3 °F 29.8 in West 12.1 mph 12.1 mph 24 % 0 in
19:17 82.6 °F 42.1 °F 29.8 in SW 12.7 mph 12.7 mph 24 % 0 in
19:22 82.4 °F 42.1 °F 29.8 in SSW 9.2 mph 9.2 mph 24 % 0 in
19:25 70.3 °F 46.8 °F 29.9 in WSW 1 mph 2 mph 43 % 0 in
19:27 82.4 °F 42.1 °F 29.8 in SSW 10.4 mph 10.4 mph 24 % 0 in
19:32 82.2 °F 43 °F 29.8 in SW 6.9 mph 6.9 mph 25 % 0 in
19:35 70.2 °F 47.1 °F 29.9 in Calm   2 mph 44 % 0 in
19:37 82 °F 42.6 °F 29.8 in South 4.6 mph 4.6 mph 25 % 0 in
19:42 82 °F 42.6 °F 29.8 in SW 4.6 mph 4.6 mph 25 % 0 in
19:45 70 °F 47.1 °F 29.9 in Calm     44 % 0 in
19:47 81.7 °F 42.4 °F 29.8 in WSW 5.8 mph 5.8 mph 25 % 0 in
19:52 81.5 °F 42.3 °F 29.8 in WSW 5.8 mph 5.8 mph 25 % 0 in
19:55 69.1 °F 47.5 °F 29.9 in WNW 1 mph 1 mph 46 % 0 in
19:57 81.3 °F 42.1 °F 29.8 in NW 6 mph 6 mph 25 % 0 in
20:02 81 °F 41.7 °F 29.8 in SW 6.9 mph 6.9 mph 25 % 0 in
20:05 68.5 °F 47.5 °F 29.9 in ENE 1 mph 2 mph 47 % 0 in
20:07 80.8 °F 42.6 °F 29.8 in SSW 4.6 mph 4.6 mph 26 % 0 in
20:12 80.6 °F 42.4 °F 29.8 in South 4.6 mph 4.6 mph 26 % 0 in
20:15 68 °F 47.7 °F 29.9 in Calm     48 % 0 in
20:17 80.4 °F 42.4 °F 29.8 in SW 2.3 mph 2.3 mph 26 % 0 in
20:22 80.2 °F 42.3 °F 29.8 in SSW 5.8 mph 5.8 mph 26 % 0 in
20:25 67.5 °F 47.7 °F 29.9 in Calm     49 % 0 in
20:27 80.1 °F 42.1 °F 29.8 in SW 3.5 mph 3.5 mph 26 % 0 in
20:32 79.9 °F 41.9 °F 29.8 in SW 5.8 mph 5.8 mph 26 % 0 in
20:35 67.5 °F 47.7 °F 29.9 in Calm   1 mph 49 % 0 in
20:37 79.7 °F 41.7 °F 29.8 in SW 2.9 mph 2.9 mph 26 % 0 in
20:42 79.3 °F 41.5 °F 29.8 in SSW 4.6 mph 4.6 mph 26 % 0 in
20:45 67.5 °F 47.7 °F 29.9 in Calm     49 % 0 in
20:47 78.8 °F 41 °F 29.8 in SSW 3.5 mph 3.5 mph 26 % 0 in
20:50 67.3 °F 47.5 °F 29.9 in Calm     49 % 0 in
20:52 78.4 °F 41.7 °F 29.8 in SW 1.2 mph 1.2 mph 27 % 0 in
20:57 78.3 °F 41.5 °F 29.8 in SW 2.3 mph 2.3 mph 27 % 0 in
20:58 78.1 °F 41.4 °F 29.8 in SW 2.6 mph 2.6 mph 27 % 0 in
21:00 66.9 °F 47.7 °F 29.9 in Calm     50 % 0 in
21:03 77.7 °F 41.2 °F 29.8 in SSW 2.3 mph 2.3 mph 27 % 0 in
21:08 77.4 °F 40.8 °F 29.8 in SW 2.3 mph 2.3 mph 27 % 0 in
21:10 66.6 °F 47.3 °F 29.9 in Calm     50 % 0 in
21:13 77.2 °F 40.6 °F 29.8 in SW 2.3 mph 2.3 mph 27 % 0 in
21:18 76.8 °F 41.2 °F 29.8 in WSW 2.4 mph 2.4 mph 28 % 0 in
21:23 76.6 °F 42.1 °F 29.8 in Calm   0.9 mph 29 % 0 in
21:28 76.5 °F 41.7 °F 29.8 in West 2.6 mph   29 % 0 in
21:30 66.6 °F 47.8 °F 29.9 in Calm     51 % 0 in
21:33 76.1 °F 41.5 °F 29.8 in WSW 2.4 mph 2.4 mph 29 % 0 in
21:38 75.9 °F 41.4 °F 29.8 in SW 4.6 mph 4.6 mph 29 % 0 in
21:40 66.2 °F 48 °F 29.9 in Calm     52 % 0 in
21:43 75.7 °F 41.2 °F 29.8 in SW 2.3 mph 2.3 mph 29 % 0 in
21:48 75.6 °F 41.2 °F 29.8 in WSW 1.6 mph 1.6 mph 29 % 0 in
21:50 66.2 °F 48.6 °F 29.9 in Calm     53 % 0 in
21:53 75.4 °F 40.8 °F 29.8 in SW 1.2 mph 1.2 mph 29 % 0 in
21:58 75.4 °F 41.7 °F 29.8 in WSW 2.3 mph 2.3 mph 30 % 0 in
22:03 75.2 °F 41.5 °F 29.8 in West 2.3 mph 2.3 mph 30 % 0 in
22:08 74.7 °F 41.2 °F 29.9 in WSW 2.3 mph 2.3 mph 30 % 0 in
22:10 66.2 °F 48.6 °F 29.9 in Calm     53 % 0 in
22:13 74.3 °F 40.8 °F 29.9 in West 2.9 mph 2.9 mph 30 % 0 in
22:18 73.9 °F 41.4 °F 29.9 in SW 2.9 mph 2.9 mph 31 % 0 in
22:20 65.3 °F 48.7 °F 29.9 in Calm   1 mph 55 % 0 in
22:23 73.8 °F 41.2 °F 29.9 in SW 1.4 mph 1.4 mph 31 % 0 in
22:28 73.4 °F 41.7 °F 29.9 in SW 2.3 mph 2.3 mph 32 % 0 in
22:30 64.2 °F 47.7 °F 29.9 in NE 1 mph 2 mph 55 % 0 in
22:33 73.2 °F 42.4 °F 29.9 in WSW 2.4 mph 2.4 mph 33 % 0 in
22:38 73 °F 42.3 °F 29.9 in West 3.5 mph 3.5 mph 33 % 0 in
22:40 63.7 °F 47.7 °F 29.9 in Calm     56 % 0 in
22:43 73 °F 43 °F 29.9 in West 3.5 mph 3.5 mph 34 % 0 in
22:48 73 °F 43.9 °F 29.9 in WSW 2.3 mph 2.3 mph 35 % 0 in
22:50 62.8 °F 47.3 °F 29.9 in Calm   2 mph 57 % 0 in
22:53 72.9 °F 44.2 °F 29.9 in WSW 2.4 mph 2.4 mph 36 % 0 in
22:58 72.7 °F 45 °F 29.9 in WSW 2.3 mph 2.3 mph 37 % 0 in
23:00 62.6 °F 47.7 °F 29.9 in Calm   1 mph 58 % 0 in
23:03 72.3 °F 44.6 °F 29.9 in West 2.4 mph 2.4 mph 37 % 0 in
23:08 72.1 °F 45.1 °F 29.8 in West 1.4 mph 1.4 mph 38 % 0 in
23:10 62.2 °F 48.2 °F 29.9 in Calm     60 % 0 in
23:13 72.1 °F 45.1 °F 29.8 in WSW 2.4 mph 2.4 mph 38 % 0 in
23:18 72 °F 45.7 °F 29.8 in SW 2.3 mph 2.3 mph 39 % 0 in
23:20 61.9 °F 48.4 °F 29.9 in Calm   2 mph 61 % 0 in
23:23 71.8 °F 45.5 °F 29.9 in SW 2.3 mph 2.3 mph 39 % 0 in
23:28 71.6 °F 46 °F 29.9 in West 2.3 mph 2.3 mph 40 % 0 in
23:30 61.7 °F 48 °F 30 in NE 1 mph 2 mph 61 % 0 in
23:33 71.6 °F 46 °F 29.9 in West 2.3 mph 2.3 mph 40 % 0 in
23:38 71.4 °F 45.9 °F 29.9 in West 2.3 mph 2.3 mph 40 % 0 in
23:40 61.5 °F 48.4 °F 29.9 in Calm   2 mph 62 % 0 in
23:43 71.4 °F 46.6 °F 29.9 in West 1.6 mph 1.6 mph 41 % 0 in
23:48 71.2 °F 46.2 °F 29.9 in SW 1.2 mph   41 % 0 in
23:50 61.5 °F 47.8 °F 29.9 in SW 1 mph 2 mph 61 % 0 in
23:53 71.2 °F 46.2 °F 29.9 in West 2.3 mph 2.3 mph 41 % 0 in
23:58 71.1 °F 46.8 °F 29.9 in West 1.2 mph   42 % 0 in
Meteo Sesrovires
Elogis d' Weather Underground - 3.75 mb

Guio original per  Jim McMurry - jmcmurry@mwt.net Adaptat per a la plantilla per  Wim van der Kuil - Leuven-Template.eu

Trobareu la nostra informacio del temps tambe a:

Weather Underground

AWEKAS